createdAt,value
2018-07-26T00:02:26.736Z,25.20
2018-07-26T00:04:54.392Z,25.10
2018-07-26T00:07:22.061Z,25.10
2018-07-26T00:09:49.718Z,25.10
2018-07-26T00:12:17.413Z,25.10
2018-07-26T00:14:45.037Z,25.00
2018-07-26T00:17:12.677Z,25.00
2018-07-26T00:19:40.310Z,25.00
2018-07-26T00:22:08.721Z,25.00
2018-07-26T00:24:36.669Z,24.90
2018-07-26T00:27:04.435Z,24.90
2018-07-26T00:29:32.042Z,24.80
2018-07-26T00:31:59.769Z,24.70
2018-07-26T00:34:27.429Z,24.70
2018-07-26T00:36:55.103Z,24.70
2018-07-26T00:39:22.795Z,24.70
2018-07-26T00:41:50.497Z,24.60
2018-07-26T00:44:18.181Z,24.60
2018-07-26T00:46:45.849Z,24.50
2018-07-26T00:49:13.503Z,24.50
2018-07-26T00:51:41.165Z,24.50
2018-07-26T00:54:08.783Z,24.40
2018-07-26T00:56:36.446Z,24.40
2018-07-26T00:59:04.143Z,24.40
2018-07-26T01:01:31.733Z,24.40
2018-07-26T01:03:59.327Z,24.30
2018-07-26T01:06:26.993Z,24.30
2018-07-26T01:08:54.669Z,24.30
2018-07-26T01:11:22.417Z,24.30
2018-07-26T01:13:50.086Z,24.20
2018-07-26T01:16:17.760Z,24.20
2018-07-26T01:18:45.385Z,24.20
2018-07-26T01:21:13.627Z,24.20
2018-07-26T01:23:41.329Z,24.20
2018-07-26T01:26:08.933Z,24.20
2018-07-26T01:28:36.558Z,24.20
2018-07-26T01:33:31.790Z,24.20
2018-07-26T01:35:59.473Z,24.20
2018-07-26T01:38:27.177Z,24.20
2018-07-26T01:40:54.865Z,24.20
2018-07-26T01:43:48.261Z,24.20
2018-07-26T01:46:19.122Z,24.20
2018-07-26T01:48:46.725Z,24.20
2018-07-26T01:51:14.415Z,24.20
2018-07-26T01:53:42.696Z,24.20
2018-07-26T01:56:10.556Z,24.20
2018-07-26T01:58:38.326Z,24.20
2018-07-26T02:01:07.677Z,24.20
2018-07-26T02:03:35.521Z,24.20
2018-07-26T02:06:03.265Z,24.20
2018-07-26T02:10:59.569Z,24.10
2018-07-26T02:13:27.284Z,24.20
2018-07-26T02:15:55.321Z,24.10
2018-07-26T02:18:22.951Z,24.10
2018-07-26T02:20:51.140Z,24.10
2018-07-26T02:23:18.771Z,24.10
2018-07-26T02:25:46.612Z,24.00
2018-07-26T02:28:14.740Z,24.00
2018-07-26T02:30:43.050Z,24.00
2018-07-26T02:33:10.704Z,24.00
2018-07-26T02:35:38.434Z,23.90
2018-07-26T02:38:06.484Z,23.90
2018-07-26T02:40:34.448Z,23.90
2018-07-26T02:43:02.300Z,23.90
2018-07-26T02:45:29.970Z,23.90
2018-07-26T02:47:57.587Z,23.90
2018-07-26T02:50:25.254Z,23.90
2018-07-26T02:52:52.896Z,23.80
2018-07-26T02:55:20.530Z,23.80
2018-07-26T03:00:15.952Z,23.80
2018-07-26T03:02:43.579Z,23.80
2018-07-26T03:05:11.203Z,23.80
2018-07-26T03:07:38.850Z,23.70
2018-07-26T03:10:06.882Z,23.70
2018-07-26T03:12:34.538Z,23.70
2018-07-26T03:15:02.162Z,23.70
2018-07-26T03:17:30.031Z,23.70
2018-07-26T03:19:57.621Z,23.70
2018-07-26T03:22:25.204Z,23.60
2018-07-26T03:24:52.842Z,23.60
2018-07-26T03:27:20.495Z,23.60
2018-07-26T03:32:15.697Z,23.50
2018-07-26T03:34:43.433Z,23.40
2018-07-26T03:37:11.115Z,23.40
2018-07-26T03:39:38.818Z,23.40
2018-07-26T03:42:06.463Z,23.40
2018-07-26T03:44:34.157Z,23.40
2018-07-26T03:47:01.746Z,23.30
2018-07-26T03:49:29.886Z,23.30
2018-07-26T03:51:57.509Z,23.30
2018-07-26T03:54:25.426Z,23.30
2018-07-26T03:56:53.069Z,23.30
2018-07-26T03:59:20.713Z,23.30
2018-07-26T04:04:15.880Z,23.40
2018-07-26T04:06:43.491Z,23.40
2018-07-26T04:09:12.841Z,23.40
2018-07-26T04:11:41.333Z,23.40
2018-07-26T04:14:08.949Z,23.40
2018-07-26T04:19:04.218Z,23.50
2018-07-26T04:21:31.905Z,23.50
2018-07-26T04:23:59.700Z,23.50
2018-07-26T04:26:27.752Z,23.60
2018-07-26T04:28:55.360Z,23.60
2018-07-26T04:31:23.077Z,23.60
2018-07-26T04:33:50.699Z,23.70
2018-07-26T04:36:18.479Z,23.80
2018-07-26T04:38:46.158Z,24.30
2018-07-26T04:41:13.908Z,25.20
2018-07-26T04:43:41.677Z,25.80
2018-07-26T04:46:09.327Z,25.90
2018-07-26T04:48:37.219Z,25.80
2018-07-26T04:51:05.476Z,25.60
2018-07-26T04:53:33.276Z,25.50
2018-07-26T04:56:00.905Z,25.40
2018-07-26T04:58:29.333Z,25.30
2018-07-26T05:00:57.202Z,25.50
2018-07-26T05:03:25.765Z,26.50
2018-07-26T05:05:53.397Z,28.10
2018-07-26T05:08:21.071Z,29.70
2018-07-26T05:10:48.941Z,31.00
2018-07-26T05:13:16.600Z,31.80
2018-07-26T05:15:44.213Z,32.80
2018-07-26T05:18:11.881Z,33.80
2018-07-26T05:20:39.662Z,34.80
2018-07-26T05:23:07.388Z,35.70
2018-07-26T05:25:35.128Z,36.40
2018-07-26T05:28:02.826Z,37.00
2018-07-26T05:30:30.397Z,37.50
2018-07-26T05:32:58.257Z,37.90
2018-07-26T05:35:25.832Z,38.30
2018-07-26T05:37:53.482Z,38.50
2018-07-26T05:40:21.156Z,38.80
2018-07-26T05:42:48.759Z,39.00
2018-07-26T05:45:16.328Z,39.10
2018-07-26T05:47:44.082Z,39.20
2018-07-26T05:50:11.644Z,39.20
2018-07-26T05:52:39.344Z,39.00
2018-07-26T05:55:07.766Z,38.60
2018-07-26T05:57:35.585Z,38.30
2018-07-26T06:00:04.801Z,37.90
2018-07-26T06:02:32.419Z,37.30
2018-07-26T06:05:00.133Z,36.90
2018-07-26T06:07:27.751Z,36.50
2018-07-26T06:09:55.396Z,36.20
2018-07-26T06:12:22.994Z,36.00
2018-07-26T06:14:50.737Z,35.80
2018-07-26T06:17:18.659Z,35.80
2018-07-26T06:19:46.247Z,35.70
2018-07-26T06:22:13.806Z,35.60
2018-07-26T06:24:41.425Z,35.70
2018-07-26T06:27:08.992Z,35.60
2018-07-26T06:29:36.761Z,35.50
2018-07-26T06:32:04.541Z,35.50
2018-07-26T06:34:32.069Z,35.50
2018-07-26T06:36:59.642Z,35.50
2018-07-26T06:39:27.309Z,35.60
2018-07-26T06:41:55.429Z,35.70
2018-07-26T06:44:23.020Z,35.80
2018-07-26T06:46:50.745Z,36.00
2018-07-26T06:49:18.421Z,36.20
2018-07-26T06:51:46.026Z,36.40
2018-07-26T06:54:13.693Z,36.60
2018-07-26T06:56:41.349Z,36.90
2018-07-26T06:59:08.921Z,37.30
2018-07-26T07:01:36.565Z,37.80
2018-07-26T07:04:04.117Z,38.30
2018-07-26T07:06:31.743Z,38.70
2018-07-26T07:08:59.391Z,39.10
2018-07-26T07:11:26.986Z,39.50
2018-07-26T07:13:54.554Z,39.90
2018-07-26T07:16:22.238Z,40.30
2018-07-26T07:18:49.842Z,40.70
2018-07-26T07:21:17.878Z,41.00
2018-07-26T07:23:45.729Z,41.30
2018-07-26T07:26:13.254Z,41.50
2018-07-26T07:28:40.918Z,41.70
2018-07-26T07:31:08.549Z,42.00
2018-07-26T07:33:36.112Z,42.30
2018-07-26T07:36:03.782Z,42.80
2018-07-26T07:38:31.391Z,43.00
2018-07-26T07:40:58.984Z,43.30
2018-07-26T07:43:26.517Z,43.50
2018-07-26T07:45:54.112Z,43.70
2018-07-26T07:48:21.672Z,44.00
2018-07-26T07:50:49.282Z,44.70
2018-07-26T07:53:16.860Z,45.80
2018-07-26T07:55:44.458Z,45.90
2018-07-26T07:58:12.006Z,46.10
2018-07-26T08:00:39.618Z,46.80
2018-07-26T08:03:07.218Z,47.20
2018-07-26T08:05:34.788Z,47.80
2018-07-26T08:08:02.402Z,48.20
2018-07-26T08:10:30.040Z,48.60
2018-07-26T08:12:57.574Z,49.30
2018-07-26T08:15:25.209Z,50.00
2018-07-26T08:17:52.810Z,49.90
2018-07-26T08:20:20.406Z,49.30
2018-07-26T08:22:48.069Z,49.70
2018-07-26T08:25:15.650Z,49.80
2018-07-26T08:27:43.240Z,49.60
2018-07-26T08:30:11.498Z,49.60
2018-07-26T08:32:39.147Z,49.90
2018-07-26T08:35:06.767Z,50.30
2018-07-26T08:37:34.398Z,50.30
2018-07-26T08:40:02.303Z,51.00
2018-07-26T08:42:29.882Z,51.40
2018-07-26T08:44:57.504Z,52.00
2018-07-26T08:49:52.671Z,52.80
2018-07-26T08:52:20.330Z,52.70
2018-07-26T08:54:47.844Z,52.10
2018-07-26T08:57:15.471Z,52.10
2018-07-26T08:59:43.076Z,51.80
2018-07-26T09:02:10.695Z,51.00
2018-07-26T09:04:38.531Z,49.40
2018-07-26T09:07:06.180Z,47.50
2018-07-26T09:09:33.766Z,45.50
2018-07-26T09:12:01.369Z,43.50
2018-07-26T09:14:29.122Z,41.80
2018-07-26T09:16:56.744Z,40.70
2018-07-26T09:19:24.324Z,39.70
2018-07-26T09:21:51.955Z,38.80
2018-07-26T09:24:19.583Z,38.10
2018-07-26T09:26:47.219Z,37.80
2018-07-26T09:29:14.807Z,37.60
2018-07-26T09:31:42.396Z,37.30
2018-07-26T09:34:10.003Z,37.10
2018-07-26T09:36:37.669Z,36.80
2018-07-26T09:39:11.710Z,36.50
2018-07-26T09:41:39.411Z,36.30
2018-07-26T09:44:07.007Z,36.20
2018-07-26T09:46:34.602Z,36.00
2018-07-26T09:49:02.530Z,35.90
2018-07-26T09:51:30.170Z,35.70
2018-07-26T09:53:57.772Z,35.30
2018-07-26T09:56:25.360Z,35.10
2018-07-26T09:58:53.045Z,34.80
2018-07-26T10:01:26.201Z,34.60
2018-07-26T10:03:53.797Z,34.50
2018-07-26T10:06:21.366Z,34.40
2018-07-26T10:08:48.996Z,34.40
2018-07-26T10:11:16.552Z,34.40
2018-07-26T10:13:44.157Z,34.50
2018-07-26T10:16:11.745Z,34.40
2018-07-26T10:18:39.338Z,34.40
2018-07-26T10:21:07.036Z,34.30
2018-07-26T10:23:34.662Z,34.30
2018-07-26T10:26:02.237Z,34.40
2018-07-26T10:28:29.863Z,34.30
2018-07-26T10:30:57.505Z,34.30
2018-07-26T10:33:25.107Z,34.30
2018-07-26T10:35:52.697Z,34.40
2018-07-26T10:38:20.586Z,34.40
2018-07-26T10:40:48.147Z,34.40
2018-07-26T10:43:15.721Z,34.40
2018-07-26T10:45:43.350Z,34.40
2018-07-26T10:48:10.919Z,34.30
2018-07-26T10:50:38.490Z,34.40
2018-07-26T10:53:06.129Z,34.40
2018-07-26T10:55:33.744Z,34.40
2018-07-26T10:58:01.305Z,34.40
2018-07-26T11:00:28.957Z,34.40
2018-07-26T11:02:56.572Z,34.40
2018-07-26T11:05:24.182Z,34.30
2018-07-26T11:07:51.769Z,34.30
2018-07-26T11:10:19.409Z,34.30
2018-07-26T11:12:46.969Z,34.30
2018-07-26T11:15:24.454Z,34.20
2018-07-26T11:17:52.097Z,34.20
2018-07-26T11:20:19.689Z,34.00
2018-07-26T11:22:47.413Z,34.00
2018-07-26T11:25:14.953Z,34.10
2018-07-26T11:27:42.590Z,34.20
2018-07-26T11:30:10.143Z,34.30
2018-07-26T11:32:38.057Z,34.30
2018-07-26T11:35:06.012Z,34.30
2018-07-26T11:37:33.623Z,34.40
2018-07-26T11:40:01.302Z,34.40
2018-07-26T11:42:28.989Z,34.40
2018-07-26T11:44:56.615Z,34.30
2018-07-26T11:47:24.203Z,34.20
2018-07-26T11:49:51.793Z,34.30
2018-07-26T11:52:19.413Z,34.20
2018-07-26T11:54:46.956Z,34.20
2018-07-26T11:57:14.549Z,34.20
2018-07-26T11:59:42.155Z,34.30
2018-07-26T12:02:09.782Z,34.40
2018-07-26T12:04:37.350Z,34.40
2018-07-26T12:07:05.106Z,34.50
2018-07-26T12:09:32.676Z,34.50
2018-07-26T12:12:00.239Z,34.50
2018-07-26T12:14:27.861Z,34.50
2018-07-26T12:16:55.405Z,34.50
2018-07-26T12:19:22.955Z,34.50
2018-07-26T12:21:50.603Z,34.40
2018-07-26T12:24:18.149Z,34.50
2018-07-26T12:26:45.696Z,34.50
2018-07-26T12:29:13.248Z,34.50
2018-07-26T12:31:40.838Z,34.50
2018-07-26T12:34:08.378Z,34.50
2018-07-26T12:36:35.990Z,34.50
2018-07-26T12:39:06.968Z,34.60
2018-07-26T12:41:34.568Z,34.60
2018-07-26T12:44:02.244Z,34.70
2018-07-26T12:46:29.842Z,34.70
2018-07-26T12:48:57.386Z,34.70
2018-07-26T12:51:24.987Z,34.70
2018-07-26T12:53:52.522Z,34.70
2018-07-26T12:56:20.112Z,34.70
2018-07-26T12:58:47.658Z,34.70
2018-07-26T13:01:15.290Z,34.60
2018-07-26T13:03:42.849Z,34.60
2018-07-26T13:06:10.551Z,34.60
2018-07-26T13:08:38.128Z,34.50
2018-07-26T13:11:05.957Z,34.50
2018-07-26T13:13:33.575Z,34.50
2018-07-26T13:16:01.109Z,34.50
2018-07-26T13:18:31.585Z,34.50
2018-07-26T13:20:59.331Z,34.60
2018-07-26T13:23:26.897Z,34.60
2018-07-26T13:25:54.494Z,34.60
2018-07-26T13:30:49.679Z,34.60
2018-07-26T13:33:17.256Z,34.50
2018-07-26T13:35:44.861Z,34.50
2018-07-26T13:38:12.595Z,34.50
2018-07-26T13:40:40.158Z,34.60
2018-07-26T13:43:07.811Z,34.60
2018-07-26T13:45:35.413Z,34.70
2018-07-26T13:48:03.051Z,34.80
2018-07-26T13:50:30.645Z,34.80
2018-07-26T13:52:58.249Z,34.90
2018-07-26T13:55:25.817Z,34.90
2018-07-26T13:57:53.425Z,35.00
2018-07-26T14:00:21.044Z,35.10
2018-07-26T14:02:48.565Z,35.10
2018-07-26T14:05:16.187Z,35.20
2018-07-26T14:07:43.735Z,35.30
2018-07-26T14:10:11.290Z,35.40
2018-07-26T14:12:38.909Z,35.40
2018-07-26T14:15:07.713Z,35.20
2018-07-26T14:17:35.692Z,35.10
2018-07-26T14:20:04.081Z,35.00
2018-07-26T14:22:31.612Z,34.90
2018-07-26T14:24:59.204Z,34.80
2018-07-26T14:27:26.926Z,34.70
2018-07-26T14:29:54.589Z,34.60
2018-07-26T14:32:22.158Z,34.50
2018-07-26T14:34:49.821Z,34.50
2018-07-26T14:37:17.408Z,34.50
2018-07-26T14:39:44.984Z,34.50
2018-07-26T14:42:12.605Z,34.70
2018-07-26T14:44:40.258Z,34.70
2018-07-26T14:47:07.898Z,34.80
2018-07-26T14:49:35.509Z,34.90
2018-07-26T14:52:03.132Z,34.90
2018-07-26T14:54:30.775Z,34.90
2018-07-26T14:56:58.448Z,34.90
2018-07-26T14:59:26.023Z,34.90
2018-07-26T15:01:54.098Z,35.00
2018-07-26T15:04:21.744Z,35.10
2018-07-26T15:09:16.962Z,35.20
2018-07-26T15:11:44.663Z,35.20
2018-07-26T15:14:12.276Z,35.20
2018-07-26T15:16:39.889Z,35.30
2018-07-26T15:19:07.655Z,35.30
2018-07-26T15:21:35.354Z,35.20
2018-07-26T15:24:02.959Z,35.20
2018-07-26T15:26:30.586Z,35.30
2018-07-26T15:28:58.312Z,35.40
2018-07-26T15:31:25.966Z,35.50
2018-07-26T15:33:53.545Z,35.60
2018-07-26T15:36:21.196Z,35.70
2018-07-26T15:38:48.793Z,35.60
2018-07-26T15:41:16.468Z,35.70
2018-07-26T15:43:44.113Z,35.50
2018-07-26T15:46:11.965Z,35.50
2018-07-26T15:48:39.581Z,35.40
2018-07-26T15:51:07.289Z,35.40
2018-07-26T15:53:34.941Z,35.30
2018-07-26T15:56:02.954Z,35.30
2018-07-26T15:58:30.651Z,35.10
2018-07-26T16:00:58.321Z,35.00
2018-07-26T16:03:25.978Z,34.90
2018-07-26T16:05:53.604Z,34.80
2018-07-26T16:08:21.141Z,34.80
2018-07-26T16:10:48.750Z,34.80
2018-07-26T16:13:16.311Z,34.80
2018-07-26T16:15:43.996Z,34.70
2018-07-26T16:18:11.702Z,34.70
2018-07-26T16:20:39.301Z,34.60
2018-07-26T16:23:06.852Z,34.50
2018-07-26T16:25:34.501Z,34.40
2018-07-26T16:28:02.108Z,34.30
2018-07-26T16:30:29.794Z,34.20
2018-07-26T16:32:57.377Z,34.10
2018-07-26T16:35:25.026Z,34.00
2018-07-26T16:37:52.729Z,34.00
2018-07-26T16:40:20.344Z,34.10
2018-07-26T16:42:47.930Z,34.10
2018-07-26T16:45:15.544Z,34.10
2018-07-26T16:47:43.229Z,34.30
2018-07-26T16:50:10.831Z,34.30
2018-07-26T16:52:38.409Z,34.40
2018-07-26T16:55:06.133Z,34.50
2018-07-26T16:57:33.760Z,34.50
2018-07-26T17:00:01.328Z,34.40
2018-07-26T17:02:28.968Z,34.40
2018-07-26T17:04:56.583Z,34.30
2018-07-26T17:07:24.204Z,34.20
2018-07-26T17:09:52.112Z,34.10
2018-07-26T17:12:19.721Z,34.00
2018-07-26T17:14:47.291Z,33.90
2018-07-26T17:17:15.053Z,33.80
2018-07-26T17:19:42.639Z,33.70
2018-07-26T17:22:10.260Z,33.60
2018-07-26T17:24:37.942Z,33.70
2018-07-26T17:27:05.588Z,33.60
2018-07-26T17:29:33.167Z,33.60
2018-07-26T17:32:00.912Z,33.60
2018-07-26T17:34:28.774Z,33.60
2018-07-26T17:36:56.359Z,33.60
2018-07-26T17:39:24.053Z,33.60
2018-07-26T17:41:51.713Z,33.60
2018-07-26T17:44:19.841Z,33.60
2018-07-26T17:46:47.477Z,33.60
2018-07-26T17:49:15.170Z,33.50
2018-07-26T17:51:42.772Z,33.40
2018-07-26T17:54:10.422Z,33.30
2018-07-26T17:56:37.968Z,33.30
2018-07-26T17:59:06.006Z,33.20
2018-07-26T18:01:33.594Z,33.20
2018-07-26T18:04:01.226Z,33.10
2018-07-26T18:06:28.830Z,33.00
2018-07-26T18:08:56.434Z,33.00
2018-07-26T18:11:24.081Z,33.00
2018-07-26T18:16:19.484Z,32.90
2018-07-26T18:18:47.154Z,32.90
2018-07-26T18:21:14.771Z,32.90
2018-07-26T18:23:42.382Z,32.70
2018-07-26T18:26:09.994Z,32.70
2018-07-26T18:28:37.645Z,32.70
2018-07-26T18:31:05.381Z,32.60
2018-07-26T18:33:33.005Z,32.50
2018-07-26T18:36:00.597Z,32.50
2018-07-26T18:38:28.622Z,32.40
2018-07-26T18:40:56.176Z,32.40
2018-07-26T18:43:23.895Z,32.30
2018-07-26T18:45:51.711Z,32.20
2018-07-26T18:48:19.295Z,32.10
2018-07-26T18:50:46.881Z,32.10
2018-07-26T18:53:14.529Z,32.00
2018-07-26T18:55:42.656Z,32.00
2018-07-26T18:58:10.215Z,31.90
2018-07-26T19:00:37.888Z,31.80
2018-07-26T19:03:05.861Z,31.80
2018-07-26T19:05:33.509Z,31.70
2018-07-26T19:08:01.179Z,31.60
2018-07-26T19:10:29.257Z,31.50
2018-07-26T19:12:56.873Z,31.40
2018-07-26T19:15:24.605Z,31.40
2018-07-26T19:17:52.215Z,31.30
2018-07-26T19:20:19.833Z,31.30
2018-07-26T19:22:47.473Z,31.20
2018-07-26T19:25:15.090Z,31.20
2018-07-26T19:27:42.681Z,31.10
2018-07-26T19:30:12.037Z,31.00
2018-07-26T19:32:39.676Z,31.00
2018-07-26T19:35:07.314Z,30.90
2018-07-26T19:37:35.398Z,30.80
2018-07-26T19:40:04.026Z,30.80
2018-07-26T19:42:31.634Z,30.70
2018-07-26T19:44:59.314Z,30.60
2018-07-26T19:49:54.450Z,30.50
2018-07-26T19:52:22.260Z,30.50
2018-07-26T19:54:50.025Z,30.40
2018-07-26T19:57:17.645Z,30.40
2018-07-26T19:59:45.271Z,30.30
2018-07-26T20:04:40.430Z,30.20
2018-07-26T20:07:08.090Z,30.10
2018-07-26T20:09:35.665Z,30.00
2018-07-26T20:14:30.778Z,30.00
2018-07-26T20:16:58.450Z,29.90
2018-07-26T20:19:26.641Z,29.90
2018-07-26T20:21:54.387Z,29.80
2018-07-26T20:24:22.278Z,29.80
2018-07-26T20:26:50.025Z,29.70
2018-07-26T20:29:18.198Z,29.60
2018-07-26T20:31:46.019Z,29.60
2018-07-26T20:34:13.612Z,29.60
2018-07-26T20:36:41.272Z,29.50
2018-07-26T20:39:11.440Z,29.50
2018-07-26T20:41:39.107Z,29.50
2018-07-26T20:44:06.975Z,29.50
2018-07-26T20:46:34.813Z,29.50
2018-07-26T20:49:02.481Z,29.50
2018-07-26T20:51:30.235Z,29.50
2018-07-26T20:53:58.025Z,29.40
2018-07-26T20:56:26.450Z,29.40
2018-07-26T20:58:54.333Z,29.30
2018-07-26T21:01:22.054Z,29.30
2018-07-26T21:03:50.684Z,29.20
2018-07-26T21:06:18.356Z,29.20
2018-07-26T21:08:46.559Z,29.10
2018-07-26T21:11:14.208Z,29.00
2018-07-26T21:13:42.102Z,28.90
2018-07-26T21:16:09.668Z,28.80
2018-07-26T21:18:37.266Z,28.80
2018-07-26T21:21:04.880Z,28.70
2018-07-26T21:23:32.540Z,28.60
2018-07-26T21:26:00.233Z,28.50
2018-07-26T21:28:27.818Z,28.30
2018-07-26T21:30:55.447Z,28.20
2018-07-26T21:33:23.101Z,28.10
2018-07-26T21:35:50.744Z,28.00
2018-07-26T21:38:18.348Z,27.90
2018-07-26T21:40:45.995Z,27.80
2018-07-26T21:43:14.054Z,27.70
2018-07-26T21:45:41.705Z,27.60
2018-07-26T21:48:09.296Z,27.60
2018-07-26T21:50:36.935Z,27.50
2018-07-26T21:53:05.023Z,27.40
2018-07-26T21:55:32.738Z,27.40
2018-07-26T21:58:00.532Z,27.30
2018-07-26T22:00:36.681Z,27.30
2018-07-26T22:03:05.385Z,27.20
2018-07-26T22:05:32.946Z,27.10
2018-07-26T22:10:28.125Z,27.00
2018-07-26T22:12:55.703Z,26.90
2018-07-26T22:15:23.295Z,26.90
2018-07-26T22:17:50.905Z,26.80
2018-07-26T22:20:18.535Z,26.80
2018-07-26T22:22:46.099Z,26.70
2018-07-26T22:25:13.834Z,26.60
2018-07-26T22:27:41.421Z,26.60
2018-07-26T22:30:09.079Z,26.50
2018-07-26T22:32:36.669Z,26.50
2018-07-26T22:37:31.850Z,26.40
2018-07-26T22:39:59.446Z,26.30
2018-07-26T22:42:27.052Z,26.30
2018-07-26T22:44:54.639Z,26.20
2018-07-26T22:47:22.481Z,26.20
2018-07-26T22:49:50.017Z,26.10
2018-07-26T22:52:17.693Z,26.10
2018-07-26T22:54:45.223Z,26.10
2018-07-26T22:57:12.911Z,26.00
2018-07-26T22:59:40.455Z,26.00
2018-07-26T23:02:08.353Z,25.90
2018-07-26T23:04:35.895Z,25.90
2018-07-26T23:07:03.654Z,25.80
2018-07-26T23:09:31.241Z,25.80
2018-07-26T23:11:59.183Z,25.80
2018-07-26T23:14:26.754Z,25.70
2018-07-26T23:16:54.359Z,25.70
2018-07-26T23:19:21.915Z,25.70
2018-07-26T23:21:49.517Z,25.60
2018-07-26T23:24:17.155Z,25.60
2018-07-26T23:26:44.730Z,25.60
2018-07-26T23:29:12.349Z,25.50
2018-07-26T23:31:39.947Z,25.50
2018-07-26T23:34:07.525Z,25.40
2018-07-26T23:36:35.055Z,25.40
2018-07-26T23:39:03.269Z,25.40
2018-07-26T23:41:30.843Z,25.30
2018-07-26T23:43:58.411Z,25.30
2018-07-26T23:46:26.044Z,25.20
2018-07-26T23:48:53.629Z,25.20
2018-07-26T23:51:21.172Z,25.20
2018-07-26T23:53:48.800Z,25.10
2018-07-26T23:56:16.337Z,25.10
2018-07-26T23:58:43.960Z,25.10
